Time;durP1;ratioP1;P1;durP2;ratioP2;P2;SDS_P1;SDS_P2;PMS_P1;PMS_P2;Temp;Humidity;BMP_temperature;BMP_pressure;BME280_temperature;BME280_humidity;BME280_pressure;Samples;Min_cycle;Max_cycle;Signal;HPM_P1;HPM_P2
2022/11/26 00:01:14;;;;;;;10.55;6.18;;;;;;;9.87;72.51;98769.19;6224364;23;20027;-95
2022/11/26 00:03:41;;;;;;;11.13;6.47;;;;;;;9.82;73.21;98778.19;6209317;23;20016;-95
2022/11/26 00:06:21;;;;;;;12.27;6.60;;;;;;;9.84;73.35;98782.53;6204651;23;20027;-96
2022/11/26 00:08:47;;;;;;;11.38;5.90;;;;;;;9.87;72.99;98786.94;6207199;23;20025;-94
2022/11/26 00:11:15;;;;;;;10.32;6.28;;;;;;;9.96;74.09;98813.25;6226339;23;20087;-95
2022/11/26 00:13:43;;;;;;;9.95;6.75;;;;;;;9.88;75.03;98778.03;6232184;23;20434;-94
2022/11/26 00:16:11;;;;;;;10.20;7.13;;;;;;;9.97;75.78;98772.50;6231008;23;20324;-96
2022/11/26 00:18:37;;;;;;;12.00;7.43;;;;;;;9.97;76.24;98776.94;6234328;23;20111;-95
2022/11/26 00:21:05;;;;;;;12.73;8.07;;;;;;;10.04;76.53;98781.19;6228562;23;20012;-95
2022/11/26 00:23:31;;;;;;;13.60;8.40;;;;;;;10.09;78.54;98779.31;6229674;23;20446;-93
2022/11/26 00:26:03;;;;;;;15.38;8.90;;;;;;;10.11;80.01;98789.91;6233819;23;20043;-96
2022/11/26 00:28:31;;;;;;;17.98;9.90;;;;;;;9.96;81.12;98776.06;6233178;23;20020;-91
2022/11/26 00:31:13;;;;;;;13.63;9.35;;;;;;;10.12;82.40;98810.22;6236560;23;20103;-96
2022/11/26 00:33:42;;;;;;;15.70;9.85;;;;;;;10.03;83.62;98801.56;6237814;23;20016;-95
2022/11/26 00:36:17;;;;;;;14.55;10.38;;;;;;;10.17;84.19;98805.66;6238612;23;20020;-95
2022/11/26 00:38:44;;;;;;;20.17;10.23;;;;;;;9.89;85.22;98782.47;6239561;23;20020;-96
2022/11/26 00:41:16;;;;;;;16.25;10.30;;;;;;;10.08;85.04;98799.69;6228686;23;20024;-95
2022/11/26 00:43:43;;;;;;;14.82;9.73;;;;;;;9.92;85.86;98786.81;6239822;23;20026;-95
2022/11/26 00:46:14;;;;;;;15.85;10.65;;;;;;;9.88;86.84;98786.00;6240234;23;20092;-96
2022/11/26 00:48:40;;;;;;;17.13;10.23;;;;;;;9.87;87.61;98784.28;6261505;23;20024;-94
2022/11/26 00:51:12;;;;;;;16.60;10.65;;;;;;;9.92;86.74;98777.06;6235284;23;20023;-96
2022/11/26 00:53:46;;;;;;;15.52;10.32;;;;;;;10.02;85.99;98791.88;6236327;23;20107;-95
2022/11/26 00:56:15;;;;;;;16.73;9.60;;;;;;;10.02;86.77;98781.25;6238500;23;20016;-94
2022/11/26 00:58:41;;;;;;;14.73;9.10;;;;;;;10.14;85.88;98792.47;6239194;23;20042;-96
2022/11/26 01:01:10;;;;;;;16.30;9.32;;;;;;;10.10;86.13;98785.47;6267676;22;20108;-96
2022/11/26 01:03:41;;;;;;;15.35;9.55;;;;;;;10.11;85.86;98784.59;6239846;23;20016;-95
2022/11/26 01:06:13;;;;;;;16.88;9.45;;;;;;;10.36;85.57;98817.63;6237653;23;20016;-94
2022/11/26 01:08:43;;;;;;;16.65;9.48;;;;;;;10.30;84.88;98785.91;6237929;23;20111;-96
2022/11/26 01:11:14;;;;;;;15.45;8.80;;;;;;;10.31;84.82;98790.28;6222497;23;20024;-96
2022/11/26 01:13:40;;;;;;;14.55;9.48;;;;;;;10.53;83.11;98795.91;6207768;23;20020;-95
2022/11/26 01:16:22;;;;;;;16.45;9.00;;;;;;;10.53;83.47;98777.31;6208576;23;20557;-96
2022/11/26 01:18:58;;;;;;;15.75;8.85;;;;;;;10.39;84.14;98782.13;6213017;23;20088;-96
2022/11/26 01:21:50;;;;;;;16.92;9.13;;;;;;;10.31;84.41;98778.78;6210145;23;20019;-96
2022/11/26 01:24:17;;;;;;;17.88;9.57;;;;;;;10.25;85.36;98785.09;6236069;23;20036;-95
2022/11/26 01:26:44;;;;;;;17.02;9.93;;;;;;;10.27;84.98;98776.16;6207879;23;20024;-96
2022/11/26 01:29:31;;;;;;;15.60;8.95;;;;;;;10.19;85.48;98771.97;6210639;23;20001;-96
2022/11/26 01:32:03;;;;;;;15.05;9.27;;;;;;;10.21;84.99;98770.13;6209902;23;20012;-96
2022/11/26 01:34:36;;;;;;;16.90;8.77;;;;;;;10.24;86.33;98778.91;6209552;23;20023;-96
2022/11/26 01:37:11;;;;;;;15.77;8.38;;;;;;;10.14;86.19;98771.22;6209237;23;20020;-96
2022/11/26 01:39:37;;;;;;;13.93;8.23;;;;;;;10.11;86.34;98764.19;6210136;23;20438;-96
2022/11/26 01:42:24;;;;;;;13.57;8.45;;;;;;;10.23;85.59;98784.25;6210843;23;20063;-96
2022/11/26 01:44:53;;;;;;;13.05;8.75;;;;;;;10.20;85.16;98765.75;6207341;23;20044;-96
2022/11/26 01:47:38;;;;;;;13.57;7.93;;;;;;;10.35;82.66;98752.09;6210218;23;20020;-96
2022/11/26 01:50:53;;;;;;;12.55;7.90;;;;;;;10.38;83.02;98762.63;6212162;23;20044;-96
2022/11/26 01:53:37;;;;;;;11.00;6.90;;;;;;;10.50;82.72;98792.50;6087452;23;20018;-95
2022/11/26 01:56:11;;;;;;;11.23;6.53;;;;;;;10.33;81.46;98761.03;6088933;23;20022;-95
2022/11/26 01:58:41;;;;;;;16.15;7.32;;;;;;;10.32;80.60;98748.63;6089573;23;20077;-96
2022/11/26 02:01:08;;;;;;;12.88;7.45;;;;;;;10.38;80.25;98754.66;6088904;23;20113;-96
2022/11/26 02:03:43;;;;;;;10.55;6.68;;;;;;;10.42;79.46;98751.00;6090362;23;20018;-96
2022/11/26 02:06:14;;;;;;;11.75;6.95;;;;;;;10.49;79.13;98751.72;6088316;23;20473;-95
2022/11/26 02:08:46;;;;;;;10.60;6.70;;;;;;;10.66;79.52;98773.41;6088320;23;20026;-96
2022/11/26 02:11:18;;;;;;;9.85;6.55;;;;;;;10.51;79.54;98749.88;6089332;23;20018;-95
2022/11/26 02:13:46;;;;;;;12.27;6.68;;;;;;;10.53;79.11;98732.09;6107552;23;20029;-96
2022/11/26 02:16:30;;;;;;;11.70;6.40;;;;;;;10.52;79.44;98727.72;6090225;23;20396;-96
2022/11/26 02:19:17;;;;;;;11.30;6.35;;;;;;;10.42;80.77;98732.41;6116012;23;20090;-96
2022/11/26 02:21:55;;;;;;;10.43;6.15;;;;;;;10.46;79.59;98730.53;6088257;23;20023;-95
2022/11/26 02:24:47;;;;;;;10.43;5.95;;;;;;;10.59;78.64;98744.38;6197788;23;20027;-96
2022/11/26 02:27:37;;;;;;;9.35;6.07;;;;;;;10.50;79.14;98734.00;6231043;23;20031;-96
2022/11/26 02:30:07;;;;;;;10.45;5.78;;;;;;;10.51;78.86;98725.09;6207221;23;20078;-96
2022/11/26 02:32:50;;;;;;;10.60;5.88;;;;;;;10.52;78.59;98734.78;6208127;23;20045;-96
2022/11/26 02:35:21;;;;;;;8.82;5.78;;;;;;;10.42;79.51;98734.19;6205892;23;20021;-95
2022/11/26 02:37:53;;;;;;;10.25;5.57;;;;;;;10.47;78.56;98730.50;6209138;23;20055;-96
2022/11/26 02:40:21;;;;;;;9.00;5.65;;;;;;;10.47;78.57;98735.81;6207301;23;20493;-96
2022/11/26 02:42:51;;;;;;;11.18;5.88;;;;;;;10.43;79.20;98736.81;6211835;23;20055;-96
2022/11/26 02:45:33;;;;;;;9.07;5.75;;;;;;;10.70;78.37;98763.56;6208540;23;20016;-96
2022/11/26 02:48:05;;;;;;;8.68;5.85;;;;;;;10.40;80.36;98733.34;6212544;23;20016;-96
2022/11/26 02:50:41;;;;;;;9.60;5.47;;;;;;;10.27;82.03;98730.13;6213767;23;20016;-96
2022/11/26 02:53:41;;;;;;;11.48;5.82;;;;;;;10.32;84.05;98769.91;6213582;23;20032;-96
2022/11/26 02:56:40;;;;;;;10.25;5.15;;;;;;;10.19;82.23;98727.69;6210156;23;20387;-96
2022/11/26 02:59:14;;;;;;;10.20;5.80;;;;;;;10.07;84.89;98733.31;6209843;23;20439;-96
2022/11/26 03:02:17;;;;;;;8.07;5.35;;;;;;;10.20;82.29;98726.75;6233217;23;20024;-96
2022/11/26 03:04:53;;;;;;;10.82;5.82;;;;;;;10.13;83.34;98714.53;6214366;23;20028;-96
2022/11/26 03:07:19;;;;;;;8.68;5.65;;;;;;;10.31;81.01;98721.19;6212500;23;20072;-96
2022/11/26 03:10:06;;;;;;;9.77;5.72;;;;;;;10.42;81.30;98728.88;6209635;23;20021;-96
2022/11/26 03:12:50;;;;;;;7.85;5.07;;;;;;;10.58;79.72;98750.59;6208801;23;20027;-96
2022/11/26 03:15:20;;;;;;;7.53;5.00;;;;;;;10.41;80.12;98733.31;6238042;23;20000;-96
2022/11/26 03:17:46;;;;;;;9.10;5.43;;;;;;;10.47;78.87;98727.84;6204604;23;20533;-96
2022/11/26 03:20:20;;;;;;;7.93;4.55;;;;;;;10.60;79.28;98739.00;6212548;23;20024;-95
2022/11/26 03:22:51;;;;;;;6.72;4.38;;;;;;;10.35;79.94;98717.53;6213237;23;20036;-96
2022/11/26 03:25:24;;;;;;;6.53;4.10;;;;;;;10.47;78.15;98717.22;6236349;23;20024;-96
2022/11/26 03:27:50;;;;;;;;;;;;;;;10.68;77.23;98741.44;6204181;23;20099;-94
2022/11/26 03:30:19;;;;;;;8.43;4.45;;;;;;;10.64;76.90;98723.81;6211709;23;19923;-94
2022/11/26 03:32:45;;;;;;;9.65;4.45;;;;;;;10.65;75.57;98699.00;6200472;23;20439;-96
2022/11/26 03:35:13;;;;;;;8.25;4.75;;;;;;;10.78;75.19;98720.75;6203284;23;20024;-94
2022/11/26 03:37:52;;;;;;;10.20;4.60;;;;;;;10.86;76.14;98745.38;6203259;23;20020;-94
2022/11/26 03:40:21;;;;;;;6.30;4.20;;;;;;;10.73;74.94;98722.69;6198510;23;20017;-96
2022/11/26 03:42:59;;;;;;;6.28;3.97;;;;;;;10.48;75.86;98680.84;6236501;23;20025;-94
2022/11/26 03:45:37;;;;;;;5.50;3.63;;;;;;;10.41;76.09;98696.09;6236467;23;20020;-96
2022/11/26 03:48:06;;;;;;;6.22;4.32;;;;;;;10.44;76.18;98701.31;6206879;23;20021;-95
2022/11/26 03:50:32;;;;;;;6.50;3.90;;;;;;;10.46;76.02;98696.84;6211640;23;20017;-95
2022/11/26 03:53:00;;;;;;;5.18;3.20;;;;;;;10.43;75.29;98702.25;6208332;23;20021;-93
2022/11/26 03:55:38;;;;;;;4.88;3.20;;;;;;;10.45;75.65;98696.88;6210899;23;20039;-94
2022/11/26 03:58:08;;;;;;;5.30;3.47;;;;;;;10.65;74.26;98717.63;6210411;23;20011;-95
2022/11/26 04:00:37;;;;;;;;;;;;;;;10.76;74.21;98726.16;6236797;23;20100;-96
2022/11/26 04:03:03;;;;;;;6.47;3.42;;;;;;;10.61;73.51;98695.53;6199877;23;19915;-93
2022/11/26 04:05:34;;;;;;;4.53;3.20;;;;;;;10.62;73.66;98696.41;6207717;23;20028;-95
2022/11/26 04:08:06;;;;;;;9.13;3.50;;;;;;;10.51;74.57;98694.06;6212091;23;20005;-95
2022/11/26 04:10:33;;;;;;;6.22;3.90;;;;;;;10.60;73.09;98695.56;6234069;23;20016;-93
2022/11/26 04:13:04;;;;;;;5.82;3.50;;;;;;;10.88;72.21;98717.78;6201236;23;20081;-95
2022/11/26 04:15:31;;;;;;;6.88;3.55;;;;;;;10.78;72.39;98699.50;6208787;23;20021;-95
2022/11/26 04:17:57;;;;;;;6.45;3.10;;;;;;;10.70;72.13;98707.72;6205100;23;20111;-96
2022/11/26 04:20:23;;;;;;;4.88;3.38;;;;;;;10.77;72.05;98719.91;6204802;23;20428;-96
2022/11/26 04:22:49;;;;;;;5.65;3.55;;;;;;;10.82;71.15;98725.09;6199450;23;20021;-93
2022/11/26 04:25:29;;;;;;;5.07;2.83;;;;;;;10.75;72.06;98721.72;6203319;23;20473;-95
2022/11/26 04:28:07;;;;;;;7.80;3.00;;;;;;;10.82;70.96;98731.31;6204003;23;20111;-96
2022/11/26 04:30:33;;;;;;;5.20;3.05;;;;;;;10.75;70.31;98716.41;6199393;23;20021;-93
2022/11/26 04:32:59;;;;;;;5.32;2.90;;;;;;;10.83;71.09;98743.66;6206207;23;20029;-95
2022/11/26 04:35:25;;;;;;;5.93;3.33;;;;;;;10.66;70.91;98722.00;6199246;23;20439;-95
2022/11/26 04:37:51;;;;;;;6.95;3.60;;;;;;;10.65;70.30;98726.47;6198124;23;20016;-96
2022/11/26 04:40:18;;;;;;;6.68;2.97;;;;;;;10.71;70.85;98741.34;6209075;23;20020;-96
2022/11/26 04:42:45;;;;;;;6.38;3.13;;;;;;;10.59;71.11;98737.25;6207592;23;20021;-95
2022/11/26 04:45:11;;;;;;;4.97;3.08;;;;;;;10.72;69.32;98743.13;6199556;23;20025;-95
2022/11/26 04:47:38;;;;;;;5.35;3.42;;;;;;;10.73;69.54;98738.66;6206289;23;20028;-96
2022/11/26 04:50:06;;;;;;;5.75;3.38;;;;;;;10.72;69.94;98745.78;6208731;23;20016;-96
2022/11/26 04:52:36;;;;;;;5.07;3.20;;;;;;;10.82;71.43;98765.88;6231743;23;20016;-96
2022/11/26 04:55:10;;;;;;;7.28;3.40;;;;;;;10.62;72.39;98744.28;6238748;23;20024;-96
2022/11/26 04:58:04;;;;;;;7.20;4.07;;;;;;;10.58;72.35;98743.50;6211757;23;20064;-96
2022/11/26 05:00:30;;;;;;;6.70;4.18;;;;;;;11.03;72.35;98795.44;6207384;23;20017;-95
2022/11/26 05:03:08;;;;;;;6.47;4.22;;;;;;;10.85;73.21;98759.59;6205667;23;20040;-96
2022/11/26 05:05:35;;;;;;;9.68;4.95;;;;;;;10.93;73.58;98788.63;6213125;23;20300;-96
2022/11/26 05:08:11;;;;;;;6.07;3.92;;;;;;;11.10;73.23;98792.56;6211186;23;20020;-96
2022/11/26 05:11:05;;;;;;;8.85;4.63;;;;;;;10.79;74.67;98760.63;6208030;23;20072;-96
2022/11/26 05:14:07;;;;;;;6.95;3.90;;;;;;;10.74;74.85;98761.69;6212101;23;20094;-96
2022/11/26 05:16:45;;;;;;;7.53;3.90;;;;;;;10.78;72.46;98761.56;6230264;23;20020;-95
2022/11/26 05:19:11;;;;;;;6.32;3.80;;;;;;;10.88;71.25;98771.00;6211983;23;20046;-96
2022/11/26 05:21:42;;;;;;;6.22;3.88;;;;;;;11.17;70.32;98795.94;6210140;23;20063;-96
2022/11/26 05:24:08;;;;;;;5.85;3.60;;;;;;;10.96;70.63;98753.97;6210086;23;20040;-95
2022/11/26 05:26:49;;;;;;;5.20;3.35;;;;;;;11.11;70.06;98777.47;6208199;23;20020;-94
2022/11/26 05:29:16;;;;;;;5.15;3.30;;;;;;;11.12;69.87;98784.53;6212401;23;20016;-96
2022/11/26 05:31:42;;;;;;;7.97;3.50;;;;;;;11.16;70.37;98790.66;6208419;23;20111;-95
2022/11/26 05:34:08;;;;;;;7.55;3.97;;;;;;;11.00;71.38;98776.91;6205425;23;20017;-95
2022/11/26 05:36:35;;;;;;;7.03;4.60;;;;;;;10.96;72.21;98769.94;6210177;23;20020;-96
2022/11/26 05:39:05;;;;;;;8.55;4.90;;;;;;;11.01;72.76;98786.63;6211127;22;20780;-96
2022/11/26 05:41:31;;;;;;;8.45;4.38;;;;;;;11.11;71.83;98766.84;6235655;23;20044;-94
2022/11/26 05:43:59;;;;;;;6.88;4.10;;;;;;;11.20;71.20;98766.56;6234055;23;20023;-96
2022/11/26 05:46:29;;;;;;;6.30;4.20;;;;;;;11.37;70.22;98786.47;6231929;23;20350;-96
2022/11/26 05:48:55;;;;;;;8.52;4.00;;;;;;;11.20;69.78;98763.03;6230300;23;20026;-94
2022/11/26 05:51:21;;;;;;;6.13;3.60;;;;;;;11.22;70.00;98783.34;6235386;23;20013;-94
2022/11/26 05:53:47;;;;;;;7.57;3.58;;;;;;;11.10;70.29;98784.59;6234531;23;20017;-95
2022/11/26 05:56:13;;;;;;;4.70;3.40;;;;;;;11.01;68.24;98781.31;6231223;23;20502;-94
2022/11/26 05:58:42;;;;;;;5.35;2.92;;;;;;;10.90;68.45;98774.50;6236008;23;20027;-96
2022/11/26 06:01:09;;;;;;;4.65;2.67;;;;;;;10.93;68.54;98801.94;6237707;23;20027;-94
2022/11/26 06:03:37;;;;;;;3.70;2.17;;;;;;;10.83;65.79;98786.22;6230142;23;20027;-95
2022/11/26 06:06:03;;;;;;;4.25;2.35;;;;;;;10.90;64.63;98801.09;6228420;23;20187;-95
2022/11/26 06:08:29;;;;;;;2.78;1.90;;;;;;;10.81;63.94;98780.09;6230728;23;20435;-96
2022/11/26 06:10:55;;;;;;;1.73;1.55;;;;;;;10.95;64.40;98816.97;6234035;23;20016;-96
2022/11/26 06:13:22;;;;;;;3.78;2.03;;;;;;;10.60;65.56;98797.50;6239025;23;20016;-96
2022/11/26 06:16:03;;;;;;;2.58;1.95;;;;;;;10.74;65.60;98839.69;6239623;23;20027;-96
2022/11/26 06:18:29;;;;;;;2.95;1.85;;;;;;;10.54;66.73;98824.28;6233959;23;20020;-94
2022/11/26 06:20:59;;;;;;;2.97;1.90;;;;;;;10.59;67.65;98840.09;6233307;23;20016;-93
2022/11/26 06:23:25;;;;;;;9.90;3.35;;;;;;;10.42;69.41;98833.41;6229132;23;20051;-94
2022/11/26 06:25:50;;;;;;;2.78;1.85;;;;;;;10.24;70.51;98823.22;6228772;23;20015;-95
2022/11/26 06:28:16;;;;;;;2.72;1.88;;;;;;;10.33;71.19;98857.56;6235590;23;20020;-96
2022/11/26 06:30:43;;;;;;;3.42;2.05;;;;;;;10.24;72.74;98849.81;6230030;23;20106;-93
2022/11/26 06:36:23;;;;;;;3.70;2.60;;;;;;;10.22;74.70;98855.16;6147890;23;20020;-95
2022/11/26 06:38:49;;;;;;;5.57;3.38;;;;;;;10.08;74.96;98841.31;6238242;23;20048;-94
2022/11/26 06:41:15;;;;;;;4.28;2.78;;;;;;;10.18;75.57;98857.91;6230750;23;20080;-95
2022/11/26 06:43:45;;;;;;;5.80;3.00;;;;;;;10.08;74.77;98843.97;6227096;23;20016;-95
2022/11/26 06:46:11;;;;;;;4.32;2.70;;;;;;;10.10;75.71;98847.47;6232407;23;20020;-96
2022/11/26 06:48:38;;;;;;;5.30;3.25;;;;;;;10.08;75.12;98842.22;6235364;23;20024;-95
2022/11/26 06:51:06;;;;;;;4.68;2.85;;;;;;;10.27;74.24;98863.00;6227870;23;20067;-96
2022/11/26 06:53:35;;;;;;;6.43;3.33;;;;;;;10.43;74.76;98882.13;6233782;23;20059;-95
2022/11/26 06:56:03;;;;;;;5.65;3.10;;;;;;;10.19;74.83;98857.00;6229624;23;20031;-95
2022/11/26 06:58:29;;;;;;;5.05;3.20;;;;;;;10.21;73.96;98853.41;6230601;23;20090;-95
2022/11/26 07:00:55;;;;;;;7.20;3.70;;;;;;;10.25;74.39;98852.41;6225204;23;20448;-93
2022/11/26 07:03:22;;;;;;;6.35;3.28;;;;;;;10.29;74.57;98861.22;6225889;23;20016;-96
2022/11/26 07:05:48;;;;;;;7.15;3.35;;;;;;;10.51;73.99;98888.13;6225534;23;20025;-96
2022/11/26 07:08:14;;;;;;;6.93;3.40;;;;;;;10.32;74.66;98855.81;6227620;23;20028;-96
2022/11/26 07:10:42;;;;;;;4.95;3.47;;;;;;;10.50;73.65;98875.78;6227671;23;20028;-94
2022/11/26 07:13:08;;;;;;;5.30;3.45;;;;;;;10.31;74.13;98854.09;6227104;23;20020;-94
2022/11/26 07:15:34;;;;;;;5.90;3.20;;;;;;;10.34;74.06;98864.63;6225636;23;20028;-95
2022/11/26 07:20:36;;;;;;;6.57;3.35;;;;;;;10.37;73.14;98866.38;6266289;22;20016;-96
2022/11/26 07:23:03;;;;;;;5.60;3.50;;;;;;;10.43;73.01;98872.41;6254526;23;20031;-95
2022/11/26 07:25:30;;;;;;;5.45;3.20;;;;;;;10.46;71.87;98858.16;6255115;23;20020;-96
2022/11/26 07:27:57;;;;;;;5.18;3.13;;;;;;;10.73;72.25;98880.47;6258139;23;20062;-96
2022/11/26 07:30:23;;;;;;;7.13;3.03;;;;;;;10.67;71.15;98856.72;6257911;23;20465;-95
2022/11/26 07:33:08;;;;;;;6.25;3.22;;;;;;;10.69;71.91;98839.81;6264014;23;20043;-96
2022/11/26 07:35:36;;;;;;;5.15;2.97;;;;;;;10.70;70.46;98846.00;6256797;23;20039;-95
2022/11/26 07:38:02;;;;;;;6.20;2.63;;;;;;;10.80;71.29;98847.50;6257221;23;20016;-96
2022/11/26 07:40:28;;;;;;;6.10;3.17;;;;;;;10.85;69.86;98837.63;6258357;23;20500;-96
2022/11/26 07:42:54;;;;;;;5.25;2.92;;;;;;;10.86;70.00;98835.81;6257036;23;20016;-94
2022/11/26 07:45:22;;;;;;;4.97;2.97;;;;;;;10.98;69.18;98840.81;6257251;23;20024;-94
2022/11/26 07:47:48;;;;;;;5.80;3.00;;;;;;;11.10;68.23;98847.56;6257351;23;20434;-96
2022/11/26 07:50:15;;;;;;;4.85;3.05;;;;;;;11.18;67.27;98842.03;6259171;23;20016;-96
2022/11/26 07:52:43;;;;;;;;;;;;;;;11.38;66.99;98882.25;6259135;23;20026;-95
2022/11/26 07:55:09;;;;;;;6.50;3.00;;;;;;;11.20;67.87;98846.41;6258243;23;19947;-96
2022/11/26 07:57:35;;;;;;;4.88;3.05;;;;;;;11.36;65.16;98846.81;6283074;22;20027;-95
2022/11/26 08:00:02;;;;;;;6.25;2.90;;;;;;;11.55;64.85;98847.16;6260563;23;20016;-96
2022/11/26 08:02:31;;;;;;;4.68;2.53;;;;;;;11.71;65.04;98877.75;6262494;23;20070;-96
2022/11/26 08:04:57;;;;;;;4.85;2.83;;;;;;;11.56;65.48;98850.69;6262534;23;20036;-96
2022/11/26 08:07:23;;;;;;;4.55;2.88;;;;;;;11.45;63.80;98856.34;6255538;23;20031;-95
2022/11/26 08:09:48;;;;;;;4.95;2.90;;;;;;;11.62;64.16;98880.69;6253557;23;20012;-96
2022/11/26 08:12:15;;;;;;;5.22;2.67;;;;;;;11.52;63.43;98857.91;6259421;23;20032;-94
2022/11/26 08:14:41;;;;;;;5.00;2.80;;;;;;;11.77;62.48;98873.16;6257638;23;20020;-96
2022/11/26 08:17:07;;;;;;;4.75;2.72;;;;;;;11.81;62.46;98864.16;6255780;23;20016;-96
2022/11/26 08:19:34;;;;;;;5.05;2.90;;;;;;;11.88;62.48;98879.06;6259786;23;20028;-96
2022/11/26 08:22:03;;;;;;;5.35;2.75;;;;;;;11.92;61.78;98880.72;6257710;23;20474;-95
2022/11/26 08:24:30;;;;;;;4.97;2.63;;;;;;;11.94;61.50;98875.34;6256629;23;20334;-96
2022/11/26 08:26:58;;;;;;;5.75;2.60;;;;;;;12.01;62.86;98888.41;6257555;23;20020;-95
2022/11/26 08:29:27;;;;;;;5.50;2.78;;;;;;;11.99;62.20;98890.28;6255177;23;20020;-96
2022/11/26 08:31:53;;;;;;;5.05;2.80;;;;;;;12.23;63.30;98898.41;6257227;23;20447;-96
2022/11/26 08:34:19;;;;;;;6.28;2.97;;;;;;;12.10;61.14;98879.25;6254469;23;20020;-96
2022/11/26 08:36:47;;;;;;;5.57;2.70;;;;;;;12.26;61.99;98893.88;6259994;22;20016;-94
2022/11/26 08:39:44;;;;;;;3.72;2.42;;;;;;;12.40;61.28;98895.22;6261042;23;20027;-96
2022/11/26 08:42:10;;;;;;;6.53;2.88;;;;;;;12.50;61.76;98918.88;6242414;22;20021;-94
2022/11/26 08:44:36;;;;;;;5.15;2.53;;;;;;;12.42;60.37;98898.69;6229365;23;20080;-96
2022/11/26 08:47:55;;;;;;;5.22;2.63;;;;;;;12.32;60.38;98892.81;6231692;23;20051;-96
2022/11/26 08:50:48;;;;;;;4.15;2.30;;;;;;;12.44;61.04;98886.19;6092182;23;20029;-96
2022/11/26 08:53:37;;;;;;;6.78;2.65;;;;;;;12.66;61.89;98902.34;6141724;23;20020;-96
2022/11/26 08:56:22;;;;;;;4.13;2.70;;;;;;;12.86;60.88;98923.03;6197919;22;20011;-95
2022/11/26 08:58:57;;;;;;;3.97;2.80;;;;;;;12.79;59.91;98903.69;6232064;23;20020;-96
2022/11/26 09:01:27;;;;;;;5.63;2.72;;;;;;;12.73;60.89;98885.25;6228339;23;20024;-96
2022/11/26 09:11:01;;;;;;;5.13;2.58;;;;;;;12.70;61.66;98925.34;5999864;23;20007;-94
2022/11/26 09:13:26;;;;;;;3.40;2.38;;;;;;;12.62;62.65;98890.94;6021160;23;20056;-96
2022/11/26 09:15:55;;;;;;;4.65;2.47;;;;;;;12.51;61.95;98906.41;6024587;23;20079;-95
2022/11/26 09:18:25;;;;;;;4.78;2.70;;;;;;;12.62;63.41;98922.06;6001129;23;20031;-95
2022/11/26 09:20:51;;;;;;;3.97;2.33;;;;;;;12.80;62.28;98923.25;6005566;23;20027;-94
2022/11/26 09:23:17;;;;;;;5.18;2.35;;;;;;;12.78;62.00;98901.09;5997592;23;20023;-95
2022/11/26 09:25:43;;;;;;;3.70;2.05;;;;;;;13.05;60.77;98926.81;5999654;23;20160;-96
2022/11/26 09:28:10;;;;;;;3.85;2.53;;;;;;;12.99;61.44;98937.72;6020291;23;20030;-96
2022/11/26 09:30:36;;;;;;;5.22;2.20;;;;;;;13.00;61.32;98922.56;5999797;23;20020;-96
2022/11/26 09:33:03;;;;;;;3.47;2.50;;;;;;;13.22;60.64;98950.25;5999040;23;20052;-93
2022/11/26 09:35:29;;;;;;;4.93;2.40;;;;;;;13.13;60.18;98937.25;5998838;23;20114;-96
2022/11/26 09:37:55;;;;;;;3.97;2.15;;;;;;;13.48;59.34;98946.69;6000252;23;20056;-96
2022/11/26 09:40:46;;;;;;;3.65;2.13;;;;;;;13.65;58.49;98942.56;6005469;23;20019;-96
2022/11/26 09:43:42;;;;;;;3.53;2.40;;;;;;;13.86;57.17;98981.00;6060923;23;20014;-96
2022/11/26 09:46:13;;;;;;;3.28;1.88;;;;;;;13.47;55.11;98977.03;6140458;23;20106;-96
2022/11/26 09:48:42;;;;;;;2.47;1.60;;;;;;;13.69;52.88;98938.84;6230027;23;20284;-96
2022/11/26 09:51:22;;;;;;;3.15;1.90;;;;;;;13.98;52.15;98945.75;6231236;23;20016;-96
2022/11/26 09:53:50;;;;;;;1.95;1.40;;;;;;;13.82;51.23;98949.94;6229862;23;20017;-96
2022/11/26 09:56:23;;;;;;;2.50;1.52;;;;;;;13.56;50.35;98959.78;6229198;23;20032;-96
2022/11/26 09:59:21;;;;;;;26.52;10.90;;;;;;;13.45;49.42;98962.84;6201998;23;20083;-96
2022/11/26 10:01:49;;;;;;;9.18;4.03;;;;;;;13.29;50.07;98978.56;6170615;23;20031;-96
2022/11/26 10:04:25;;;;;;;7.70;3.60;;;;;;;13.32;50.35;98999.81;6206796;23;20481;-96
2022/11/26 10:13:18;;;;;;;58.95;25.08;;;;;;;13.09;53.08;99032.56;6258792;22;20051;-93
2022/11/26 10:15:56;;;;;;;78.95;29.73;;;;;;;13.01;53.98;99009.72;6228642;23;20031;-94
2022/11/26 10:18:32;;;;;;;56.15;22.98;;;;;;;13.20;54.96;99034.03;6226050;23;20062;-95
2022/11/26 10:21:19;;;;;;;49.83;22.25;;;;;;;13.10;54.78;98996.09;6235278;23;20013;-95
2022/11/26 10:23:56;;;;;;;36.83;15.93;;;;;;;13.14;56.13;99003.03;6257240;23;20027;-95
2022/11/26 10:26:28;;;;;;;34.40;18.50;;;;;;;13.06;55.46;99010.47;6233371;23;20035;-96
2022/11/26 10:29:15;;;;;;;28.75;15.30;;;;;;;13.22;56.12;99054.41;6211882;23;20027;-96
2022/11/26 10:31:49;;;;;;;21.98;10.43;;;;;;;13.08;56.30;99028.16;6210229;23;20020;-96
2022/11/26 10:34:26;;;;;;;38.35;17.67;;;;;;;12.91;55.70;99023.38;6206238;23;20024;-96
2022/11/26 10:37:00;;;;;;;20.27;11.43;;;;;;;12.92;56.03;99025.16;6205372;23;20072;-96
2022/11/26 10:42:41;;;;;;;12.05;7.53;;;;;;;13.06;56.66;99055.84;6204488;23;20028;-95
2022/11/26 10:45:18;;;;;;;7.22;4.32;;;;;;;13.08;55.37;99052.19;6230643;23;20023;-96
2022/11/26 10:48:22;;;;;;;7.15;4.53;;;;;;;12.98;56.78;99050.75;6209259;23;20084;-96
2022/11/26 10:53:35;;;;;;;5.72;3.60;;;;;;;12.70;59.04;99051.63;6236739;22;20029;-96
2022/11/26 10:56:05;;;;;;;6.40;3.60;;;;;;;12.68;57.94;99056.13;6208467;23;20064;-96
2022/11/26 10:58:38;;;;;;;5.50;3.28;;;;;;;12.62;58.23;99055.44;6207520;23;20042;-96
2022/11/26 11:01:05;;;;;;;8.25;3.33;;;;;;;12.58;59.90;99062.69;6205004;23;20111;-96
2022/11/26 11:03:55;;;;;;;6.70;3.55;;;;;;;12.46;60.10;99057.72;6204005;23;20366;-96
2022/11/26 11:06:47;;;;;;;5.50;2.88;;;;;;;12.50;60.00;99060.25;6210784;23;20029;-96
2022/11/26 11:09:28;;;;;;;8.10;3.20;;;;;;;12.52;60.62;99062.88;6210908;23;20111;-96
2022/11/26 11:12:15;;;;;;;6.45;3.30;;;;;;;12.54;60.58;99075.22;6207728;23;20111;-95
2022/11/26 11:14:42;;;;;;;5.85;3.40;;;;;;;12.65;61.10;99087.38;6211084;23;20044;-95
2022/11/26 11:23:50;;;;;;;4.50;2.58;;;;;;;12.41;62.03;99081.88;6177592;23;20009;-95
2022/11/26 11:32:42;;;;;;;6.88;3.45;;;;;;;12.13;63.92;99098.66;6233775;22;20427;-96
2022/11/26 11:35:20;;;;;;;5.60;3.38;;;;;;;12.10;64.84;99090.75;6208515;23;20048;-96
2022/11/26 11:37:48;;;;;;;8.60;4.07;;;;;;;12.13;63.04;99113.78;6199732;23;20024;-95
2022/11/26 11:40:22;;;;;;;9.23;4.40;;;;;;;12.11;63.97;99120.94;6204696;23;20103;-95
2022/11/26 11:42:52;;;;;;;8.75;4.55;;;;;;;12.21;63.68;99135.78;6232852;23;20035;-96
2022/11/26 11:45:28;;;;;;;6.30;3.50;;;;;;;12.00;65.38;99126.56;6206902;23;20048;-96
2022/11/26 11:48:03;;;;;;;10.40;3.65;;;;;;;11.92;67.14;99133.88;6204281;23;20025;-96
2022/11/26 11:50:37;;;;;;;10.10;4.65;;;;;;;11.95;69.27;99160.47;6210307;23;20009;-96
2022/11/26 11:53:21;;;;;;;6.07;2.85;;;;;;;11.57;70.79;99142.75;6207381;23;20012;-96
2022/11/26 11:56:16;;;;;;;5.20;2.65;;;;;;;11.72;71.17;99161.88;6209890;22;20024;-96
2022/11/26 11:59:11;;;;;;;4.32;2.88;;;;;;;11.45;70.00;99131.50;6200865;23;20048;-95
2022/11/26 12:01:51;;;;;;;4.43;2.70;;;;;;;11.52;69.22;99156.19;6231494;23;20140;-96
2022/11/26 12:04:34;;;;;;;5.63;2.95;;;;;;;11.73;69.33;99181.41;6204731;23;20039;-96
2022/11/26 12:07:30;;;;;;;6.05;3.25;;;;;;;11.54;68.69;99157.03;6206003;23;20016;-96
2022/11/26 12:10:04;;;;;;;4.18;2.47;;;;;;;11.73;67.56;99186.72;6202071;23;20400;-96
2022/11/26 12:12:34;;;;;;;5.32;2.72;;;;;;;11.57;67.72;99148.97;6203016;23;20024;-96
2022/11/26 12:15:09;;;;;;;6.60;2.75;;;;;;;11.85;67.83;99191.75;6204202;23;20020;-96
2022/11/26 12:17:41;;;;;;;4.68;2.75;;;;;;;11.89;66.88;99169.50;6204678;23;20370;-95
2022/11/26 12:20:19;;;;;;;6.28;2.83;;;;;;;11.87;67.63;99149.97;6204790;23;20024;-94
2022/11/26 12:22:52;;;;;;;5.97;2.75;;;;;;;11.87;67.23;99149.09;6205692;23;20088;-96
2022/11/26 12:25:28;;;;;;;4.30;2.60;;;;;;;12.13;66.33;99151.09;6205212;23;20024;-96
2022/11/26 12:28:04;;;;;;;5.53;3.20;;;;;;;12.27;64.88;99140.03;6202686;23;20021;-96
2022/11/26 12:30:42;;;;;;;4.95;2.75;;;;;;;12.32;64.22;99143.47;6200586;23;20017;-95
2022/11/26 12:33:19;;;;;;;3.58;2.20;;;;;;;12.44;63.52;99134.22;6203555;23;20075;-96
2022/11/26 12:35:53;;;;;;;5.65;3.28;;;;;;;12.48;64.12;99131.44;6205425;23;20052;-94